createdAt,value
2023-04-09T00:00:45.700Z,0
2023-04-09T00:05:52.139Z,0
2023-04-09T00:10:58.585Z,0
2023-04-09T00:16:04.196Z,0
2023-04-09T00:21:09.788Z,0
2023-04-09T00:31:22.722Z,0
2023-04-09T00:36:29.178Z,0
2023-04-09T00:41:35.641Z,0
2023-04-09T00:46:42.103Z,0
2023-04-09T00:51:48.564Z,0
2023-04-09T00:56:55.041Z,0
2023-04-09T01:02:01.513Z,0
2023-04-09T01:12:14.443Z,0
2023-04-09T01:22:27.360Z,0
2023-04-09T01:32:39.425Z,0
2023-04-09T01:37:45.060Z,0
2023-04-09T01:42:50.638Z,0
2023-04-09T01:47:57.091Z,0
2023-04-09T01:53:03.571Z,0
2023-04-09T02:03:16.490Z,0
2023-04-09T02:08:23.209Z,0
2023-04-09T02:13:29.432Z,0
2023-04-09T02:18:35.884Z,0
2023-04-09T02:23:42.382Z,0
2023-04-09T02:28:48.814Z,0
2023-04-09T02:33:55.292Z,0
2023-04-09T02:39:01.770Z,0
2023-04-09T02:44:08.219Z,0
2023-04-09T02:49:13.807Z,0
2023-04-09T02:54:20.270Z,0
2023-04-09T02:59:26.742Z,0
2023-04-09T03:04:33.205Z,0
2023-04-09T03:09:39.676Z,0
2023-04-09T03:14:46.133Z,0
2023-04-09T03:19:52.607Z,0
2023-04-09T03:24:59.109Z,0
2023-04-09T03:30:04.674Z,0
2023-04-09T03:35:10.258Z,0
2023-04-09T03:40:16.722Z,0
2023-04-09T03:45:23.194Z,0
2023-04-09T03:55:36.123Z,0
2023-04-09T04:00:42.586Z,0
2023-04-09T04:05:49.050Z,0
2023-04-09T04:10:55.524Z,0
2023-04-09T04:16:02.071Z,1
2023-04-09T04:21:08.354Z,2
2023-04-09T04:26:14.788Z,3
2023-04-09T04:31:21.235Z,1
2023-04-09T04:36:27.598Z,8
2023-04-09T04:46:39.548Z,20
2023-04-09T04:51:45.102Z,16
2023-04-09T04:56:50.628Z,25
2023-04-09T05:01:57.130Z,28
2023-04-09T05:07:03.448Z,26
2023-04-09T05:12:09.856Z,37
2023-04-09T05:17:16.280Z,58
2023-04-09T05:22:22.716Z,60
2023-04-09T05:27:29.094Z,77
2023-04-09T05:37:41.920Z,189
2023-04-09T05:42:48.337Z,213
2023-04-09T05:47:54.755Z,252
2023-04-09T05:53:01.162Z,191
2023-04-09T05:58:07.565Z,285
2023-04-09T06:03:13.111Z,143
2023-04-09T06:08:19.555Z,67
2023-04-09T06:13:25.978Z,235
2023-04-09T06:18:32.348Z,276
2023-04-09T06:28:45.180Z,371
2023-04-09T06:33:51.567Z,277
2023-04-09T06:38:57.987Z,418
2023-04-09T06:44:04.425Z,533
2023-04-09T06:49:10.808Z,511
2023-04-09T06:54:17.221Z,586
2023-04-09T06:59:23.625Z,142
2023-04-09T07:04:30.040Z,612
2023-04-09T07:09:35.700Z,791
2023-04-09T07:14:42.192Z,826
2023-04-09T07:19:48.507Z,476
2023-04-09T07:24:54.111Z,557
2023-04-09T07:29:59.581Z,605
2023-04-09T07:35:06.072Z,524
2023-04-09T07:40:12.301Z,498
2023-04-09T07:45:18.745Z,432
2023-04-09T07:50:25.140Z,567
2023-04-09T08:00:38.114Z,890
2023-04-09T08:05:44.567Z,820
2023-04-09T08:10:50.827Z,919
2023-04-09T08:15:57.332Z,604
2023-04-09T08:21:03.694Z,747
2023-04-09T08:26:10.199Z,707
2023-04-09T08:31:16.417Z,638
2023-04-09T08:36:22.118Z,563
2023-04-09T08:41:28.549Z,740
2023-04-09T08:46:34.884Z,620
2023-04-09T08:51:41.190Z,860
2023-04-09T08:56:47.647Z,726
2023-04-09T09:01:54.103Z,859
2023-04-09T09:07:00.419Z,920
2023-04-09T09:12:06.971Z,785
2023-04-09T09:17:12.493Z,709
2023-04-09T09:22:18.062Z,471
2023-04-09T09:27:24.515Z,581
2023-04-09T09:37:37.352Z,652
2023-04-09T09:42:43.571Z,670
2023-04-09T09:52:56.411Z,1169
2023-04-09T09:58:02.811Z,1178
2023-04-09T10:03:09.221Z,880
2023-04-09T10:08:15.624Z,887
2023-04-09T10:13:22.031Z,557
2023-04-09T10:18:28.455Z,386
2023-04-09T10:23:34.001Z,584
2023-04-09T10:28:39.539Z,860
2023-04-09T10:33:45.956Z,1672
2023-04-09T10:43:58.767Z,1704
2023-04-09T10:49:05.180Z,1788
2023-04-09T10:54:11.598Z,1330
2023-04-09T10:59:17.992Z,1986
2023-04-09T11:04:24.414Z,1604
2023-04-09T11:09:30.844Z,1466
2023-04-09T11:14:37.242Z,1734
2023-04-09T11:19:43.650Z,1503
2023-04-09T11:24:50.070Z,602
2023-04-09T11:29:56.469Z,1491
2023-04-09T11:35:02.884Z,1639
2023-04-09T11:45:14.822Z,2143
2023-04-09T11:50:20.377Z,1018
2023-04-09T11:55:25.911Z,1854
2023-04-09T12:00:32.329Z,1626
2023-04-09T12:10:45.137Z,1670
2023-04-09T12:15:51.542Z,1200
2023-04-09T12:20:57.968Z,1390
2023-04-09T12:26:04.379Z,1518
2023-04-09T12:31:10.795Z,1263
2023-04-09T12:36:17.196Z,1468
2023-04-09T12:41:23.621Z,1407
2023-04-09T12:46:30.028Z,1262
2023-04-09T12:51:36.443Z,1702
2023-04-09T12:56:42.840Z,1462
2023-04-09T13:06:54.788Z,1448
2023-04-09T13:12:01.205Z,1460
2023-04-09T13:17:07.609Z,1586
2023-04-09T13:22:14.045Z,1509
2023-04-09T13:27:20.436Z,1541
2023-04-09T13:32:25.978Z,1638
2023-04-09T13:37:32.379Z,1563
2023-04-09T13:42:38.795Z,1964
2023-04-09T13:47:45.208Z,1790
2023-04-09T13:52:51.617Z,1920
2023-04-09T13:57:57.166Z,2089
2023-04-09T14:03:02.701Z,2080
2023-04-09T14:08:09.108Z,2074
2023-04-09T14:13:15.526Z,2243
2023-04-09T14:18:21.936Z,2490
2023-04-09T14:23:28.346Z,1979
2023-04-09T14:28:34.751Z,2961
2023-04-09T14:33:41.170Z,2428
2023-04-09T14:38:47.584Z,2851
2023-04-09T14:49:00.393Z,2663
2023-04-09T14:59:13.230Z,4013
2023-04-09T15:09:25.199Z,3888
2023-04-09T15:14:31.600Z,3250
2023-04-09T15:19:37.165Z,3396
2023-04-09T15:24:42.685Z,3789
2023-04-09T15:29:49.106Z,3793
2023-04-09T15:34:55.516Z,3455
2023-04-09T15:40:01.924Z,3293
2023-04-09T15:45:08.345Z,3416
2023-04-09T15:50:14.758Z,3036
2023-04-09T16:00:27.583Z,3061
2023-04-09T16:05:33.994Z,2494
2023-04-09T16:10:40.415Z,14535
2023-04-09T16:15:46.830Z,12394
2023-04-09T16:20:53.234Z,20291
2023-04-09T16:25:59.656Z,13826
2023-04-09T16:31:05.182Z,14480
2023-04-09T16:41:18.005Z,8934
2023-04-09T16:46:24.417Z,9313
2023-04-09T16:51:30.831Z,6337
2023-04-09T16:56:37.230Z,10380
2023-04-09T17:01:43.665Z,13416
2023-04-09T17:06:50.061Z,7734
2023-04-09T17:11:56.472Z,2266
2023-04-09T17:17:02.873Z,1189
2023-04-09T17:22:09.292Z,1016
2023-04-09T17:32:22.130Z,533
2023-04-09T17:37:27.642Z,299
2023-04-09T17:42:34.063Z,297
2023-04-09T17:47:40.484Z,267
2023-04-09T17:52:46.882Z,234
2023-04-09T17:57:53.301Z,177
2023-04-09T18:02:59.709Z,119
2023-04-09T18:08:06.106Z,82
2023-04-09T18:13:12.541Z,51
2023-04-09T18:23:25.351Z,12
2023-04-09T18:28:31.765Z,4
2023-04-09T18:33:38.176Z,1
2023-04-09T18:38:44.637Z,0
2023-04-09T18:43:50.230Z,0
2023-04-09T18:48:56.700Z,0
2023-04-09T18:54:03.146Z,0
2023-04-09T18:59:09.629Z,0
2023-04-09T19:04:16.103Z,0
2023-04-09T19:14:29.031Z,0
2023-04-09T19:19:35.519Z,0
2023-04-09T19:24:41.990Z,0
2023-04-09T19:29:48.423Z,0
2023-04-09T19:34:54.896Z,0
2023-04-09T19:40:01.351Z,0
2023-04-09T19:45:07.820Z,0
2023-04-09T19:50:13.407Z,0
2023-04-09T19:55:19.861Z,0
2023-04-09T20:00:26.333Z,0
2023-04-09T20:05:32.796Z,0
2023-04-09T20:10:38.402Z,0
2023-04-09T20:15:43.995Z,0
2023-04-09T20:20:50.463Z,0
2023-04-09T20:25:57.020Z,0
2023-04-09T20:31:03.389Z,0
2023-04-09T20:36:09.848Z,0
2023-04-09T20:41:16.379Z,0
2023-04-09T20:46:22.784Z,0
2023-04-09T20:51:29.251Z,0
2023-04-09T20:56:35.714Z,0
2023-04-09T21:01:42.201Z,0
2023-04-09T21:06:47.773Z,0
2023-04-09T21:11:53.375Z,0
2023-04-09T21:16:59.842Z,0
2023-04-09T21:22:06.313Z,0
2023-04-09T21:27:12.775Z,0
2023-04-09T21:32:19.245Z,0
2023-04-09T21:37:25.726Z,0
2023-04-09T21:42:32.182Z,0
2023-04-09T21:47:38.647Z,0
2023-04-09T21:52:45.174Z,0
2023-04-09T21:57:51.608Z,0
2023-04-09T22:02:58.069Z,0
2023-04-09T22:08:04.514Z,0
2023-04-09T22:13:10.966Z,0
2023-04-09T22:18:16.561Z,0
2023-04-09T22:23:23.019Z,0
2023-04-09T22:28:29.529Z,0
2023-04-09T22:33:35.957Z,0
2023-04-09T22:38:42.410Z,0
2023-04-09T22:43:48.882Z,0
2023-04-09T22:48:55.347Z,0
2023-04-09T22:54:01.824Z,0
2023-04-09T22:59:08.276Z,0
2023-04-09T23:04:14.751Z,0
2023-04-09T23:09:21.209Z,0
2023-04-09T23:14:27.674Z,0
2023-04-09T23:19:34.128Z,0
2023-04-09T23:24:39.709Z,0
2023-04-09T23:29:46.178Z,0
2023-04-09T23:34:52.649Z,0
2023-04-09T23:39:59.113Z,0
2023-04-09T23:45:05.590Z,0
2023-04-09T23:50:12.058Z,0
2023-04-09T23:55:18.516Z,0
